sensor_id;sensor_type;location;lat;lon;timestamp;temperature;humidity
62072;DHT22;48031;48.542;13.232;2022-08-11T00:01:50;21.50;1.00
62072;DHT22;48031;48.542;13.232;2022-08-11T00:04:18;20.30;1.00
62072;DHT22;48031;48.542;13.232;2022-08-11T00:06:46;21.30;1.00
62072;DHT22;48031;48.542;13.232;2022-08-11T00:09:15;20.70;1.00
62072;DHT22;48031;48.542;13.232;2022-08-11T00:14:16;18.90;1.00
62072;DHT22;48031;48.542;13.232;2022-08-11T00:16:52;21.00;1.00
62072;DHT22;48031;48.542;13.232;2022-08-11T00:19:20;21.40;1.00
62072;DHT22;48031;48.542;13.232;2022-08-11T00:22:08;18.50;1.00
62072;DHT22;48031;48.542;13.232;2022-08-11T00:27:18;19.40;1.00
62072;DHT22;48031;48.542;13.232;2022-08-11T00:29:54;20.20;1.00
62072;DHT22;48031;48.542;13.232;2022-08-11T00:32:21;20.50;1.00
62072;DHT22;48031;48.542;13.232;2022-08-11T00:34:48;21.50;1.00
62072;DHT22;48031;48.542;13.232;2022-08-11T00:37:17;19.60;1.00
62072;DHT22;48031;48.542;13.232;2022-08-11T00:39:46;20.40;1.00
62072;DHT22;48031;48.542;13.232;2022-08-11T01:01:04;21.10;1.00
62072;DHT22;48031;48.542;13.232;2022-08-11T01:23:31;20.60;1.00
62072;DHT22;48031;48.542;13.232;2022-08-11T01:58:29;20.60;1.00
62072;DHT22;48031;48.542;13.232;2022-08-11T02:01:13;20.80;1.00
62072;DHT22;48031;48.542;13.232;2022-08-11T02:03:46;20.10;1.00
62072;DHT22;48031;48.542;13.232;2022-08-11T02:22:06;20.10;1.00
62072;DHT22;48031;48.542;13.232;2022-08-11T02:25:06;19.90;1.00
62072;DHT22;48031;48.542;13.232;2022-08-11T02:27:37;19.60;1.00
62072;DHT22;48031;48.542;13.232;2022-08-11T02:30:08;20.70;1.00
62072;DHT22;48031;48.542;13.232;2022-08-11T02:35:23;20.80;1.00
62072;DHT22;48031;48.542;13.232;2022-08-11T02:40:47;19.40;1.00
62072;DHT22;48031;48.542;13.232;2022-08-11T02:44:05;20.40;1.00
62072;DHT22;48031;48.542;13.232;2022-08-11T02:57:26;19.00;1.00
62072;DHT22;48031;48.542;13.232;2022-08-11T03:00:10;20.40;1.00
62072;DHT22;48031;48.542;13.232;2022-08-11T03:21:19;17.60;1.00
62072;DHT22;48031;48.542;13.232;2022-08-11T03:23:52;18.50;1.00
62072;DHT22;48031;48.542;13.232;2022-08-11T03:26:23;18.90;1.00
62072;DHT22;48031;48.542;13.232;2022-08-11T03:28:55;19.80;1.00
62072;DHT22;48031;48.542;13.232;2022-08-11T03:31:52;19.70;1.00
62072;DHT22;48031;48.542;13.232;2022-08-11T03:34:17;19.50;1.00
62072;DHT22;48031;48.542;13.232;2022-08-11T03:39:46;17.30;1.00
62072;DHT22;48031;48.542;13.232;2022-08-11T04:12:25;19.80;1.00
62072;DHT22;48031;48.542;13.232;2022-08-11T04:34:05;18.70;1.00
62072;DHT22;48031;48.542;13.232;2022-08-11T04:40:05;20.00;1.00
62072;DHT22;48031;48.542;13.232;2022-08-11T04:50:51;19.60;1.00
62072;DHT22;48031;48.542;13.232;2022-08-11T04:53:56;20.10;1.00
62072;DHT22;48031;48.542;13.232;2022-08-11T04:56:44;19.30;1.00
62072;DHT22;48031;48.542;13.232;2022-08-11T05:05:21;19.00;1.00
62072;DHT22;48031;48.542;13.232;2022-08-11T05:11:02;18.40;1.00
62072;DHT22;48031;48.542;13.232;2022-08-11T05:13:40;19.70;1.00
62072;DHT22;48031;48.542;13.232;2022-08-11T05:16:28;18.20;1.00
62072;DHT22;48031;48.542;13.232;2022-08-11T05:22:02;18.50;1.00
62072;DHT22;48031;48.542;13.232;2022-08-11T05:30:59;18.50;1.00
62072;DHT22;48031;48.542;13.232;2022-08-11T05:33:49;18.60;1.00
62072;DHT22;48031;48.542;13.232;2022-08-11T05:36:39;19.70;1.00
62072;DHT22;48031;48.542;13.232;2022-08-11T05:39:31;19.90;1.00
62072;DHT22;48031;48.542;13.232;2022-08-11T05:42:16;19.50;1.00
62072;DHT22;48031;48.542;13.232;2022-08-11T05:45:09;18.20;1.00
62072;DHT22;48031;48.542;13.232;2022-08-11T05:48:15;18.80;1.00
62072;DHT22;48031;48.542;13.232;2022-08-11T05:51:01;18.20;1.00
62072;DHT22;48031;48.542;13.232;2022-08-11T05:53:57;19.00;1.00
62072;DHT22;48031;48.542;13.232;2022-08-11T05:56:55;19.00;1.00
62072;DHT22;48031;48.542;13.232;2022-08-11T05:59:24;17.50;1.00
62072;DHT22;48031;48.542;13.232;2022-08-11T06:02:04;18.40;1.00
62072;DHT22;48031;48.542;13.232;2022-08-11T06:04:33;20.00;1.00
62072;DHT22;48031;48.542;13.232;2022-08-11T06:07:02;18.10;1.00
62072;DHT22;48031;48.542;13.232;2022-08-11T06:09:36;20.10;1.00
62072;DHT22;48031;48.542;13.232;2022-08-11T06:12:05;20.90;1.00
62072;DHT22;48031;48.542;13.232;2022-08-11T06:14:34;20.00;1.00
62072;DHT22;48031;48.542;13.232;2022-08-11T06:17:09;20.70;1.00
62072;DHT22;48031;48.542;13.232;2022-08-11T06:19:40;20.70;1.00
62072;DHT22;48031;48.542;13.232;2022-08-11T06:22:08;20.80;1.00
62072;DHT22;48031;48.542;13.232;2022-08-11T06:24:37;18.50;1.00
62072;DHT22;48031;48.542;13.232;2022-08-11T06:27:05;20.10;1.00
62072;DHT22;48031;48.542;13.232;2022-08-11T06:29:45;19.90;1.00
62072;DHT22;48031;48.542;13.232;2022-08-11T06:32:25;21.00;1.00
62072;DHT22;48031;48.542;13.232;2022-08-11T06:47:44;20.60;1.00
62072;DHT22;48031;48.542;13.232;2022-08-11T06:50:16;21.30;1.00
62072;DHT22;48031;48.542;13.232;2022-08-11T06:53:03;20.60;1.00
62072;DHT22;48031;48.542;13.232;2022-08-11T06:55:32;19.10;1.00
62072;DHT22;48031;48.542;13.232;2022-08-11T06:58:31;22.00;1.00
62072;DHT22;48031;48.542;13.232;2022-08-11T07:03:50;21.70;1.00
62072;DHT22;48031;48.542;13.232;2022-08-11T07:06:48;20.70;1.00
62072;DHT22;48031;48.542;13.232;2022-08-11T07:12:13;21.60;1.00
62072;DHT22;48031;48.542;13.232;2022-08-11T07:15:04;22.00;1.00
62072;DHT22;48031;48.542;13.232;2022-08-11T07:18:22;21.60;1.00
62072;DHT22;48031;48.542;13.232;2022-08-11T07:21:28;20.20;1.00
62072;DHT22;48031;48.542;13.232;2022-08-11T07:24:36;21.10;1.00
62072;DHT22;48031;48.542;13.232;2022-08-11T07:27:35;22.40;1.00
62072;DHT22;48031;48.542;13.232;2022-08-11T07:30:22;22.10;1.00
62072;DHT22;48031;48.542;13.232;2022-08-11T07:32:50;22.50;1.00
62072;DHT22;48031;48.542;13.232;2022-08-11T07:35:31;22.70;1.00
62072;DHT22;48031;48.542;13.232;2022-08-11T07:38:01;22.70;1.00
62072;DHT22;48031;48.542;13.232;2022-08-11T07:40:33;21.90;1.00
62072;DHT22;48031;48.542;13.232;2022-08-11T07:43:00;22.50;1.00
62072;DHT22;48031;48.542;13.232;2022-08-11T07:45:29;21.90;1.00
62072;DHT22;48031;48.542;13.232;2022-08-11T07:48:15;22.70;1.00
62072;DHT22;48031;48.542;13.232;2022-08-11T07:51:01;20.80;1.00
62072;DHT22;48031;48.542;13.232;2022-08-11T07:53:47;21.30;1.00
62072;DHT22;48031;48.542;13.232;2022-08-11T07:56:34;22.30;1.00
62072;DHT22;48031;48.542;13.232;2022-08-11T07:59:21;22.30;1.00
62072;DHT22;48031;48.542;13.232;2022-08-11T08:02:38;21.00;1.00
62072;DHT22;48031;48.542;13.232;2022-08-11T08:05:24;23.40;1.00
62072;DHT22;48031;48.542;13.232;2022-08-11T08:08:09;23.00;1.00
62072;DHT22;48031;48.542;13.232;2022-08-11T08:10:55;22.70;1.00
62072;DHT22;48031;48.542;13.232;2022-08-11T08:13:41;22.50;1.00
62072;DHT22;48031;48.542;13.232;2022-08-11T08:16:28;22.60;1.00
62072;DHT22;48031;48.542;13.232;2022-08-11T08:19:15;23.20;1.00
62072;DHT22;48031;48.542;13.232;2022-08-11T08:21:42;22.70;1.00
62072;DHT22;48031;48.542;13.232;2022-08-11T08:24:11;22.90;1.00
62072;DHT22;48031;48.542;13.232;2022-08-11T08:26:38;21.40;1.00
62072;DHT22;48031;48.542;13.232;2022-08-11T08:29:28;23.10;1.00
62072;DHT22;48031;48.542;13.232;2022-08-11T08:32:15;23.10;1.00
62072;DHT22;48031;48.542;13.232;2022-08-11T08:34:43;22.90;1.00
62072;DHT22;48031;48.542;13.232;2022-08-11T08:37:11;23.70;1.00
62072;DHT22;48031;48.542;13.232;2022-08-11T08:39:58;23.60;1.00
62072;DHT22;48031;48.542;13.232;2022-08-11T08:42:26;23.70;1.00
62072;DHT22;48031;48.542;13.232;2022-08-11T08:45:14;24.00;1.00
62072;DHT22;48031;48.542;13.232;2022-08-11T08:47:43;23.40;1.00
62072;DHT22;48031;48.542;13.232;2022-08-11T08:50:15;24.10;1.00
62072;DHT22;48031;48.542;13.232;2022-08-11T08:52:55;24.10;1.00
62072;DHT22;48031;48.542;13.232;2022-08-11T08:55:23;23.80;1.00
62072;DHT22;48031;48.542;13.232;2022-08-11T08:57:53;24.10;1.00
62072;DHT22;48031;48.542;13.232;2022-08-11T09:00:21;24.20;1.00
62072;DHT22;48031;48.542;13.232;2022-08-11T09:02:49;23.10;1.00
62072;DHT22;48031;48.542;13.232;2022-08-11T09:05:17;23.30;1.00
62072;DHT22;48031;48.542;13.232;2022-08-11T09:07:44;23.80;1.00
62072;DHT22;48031;48.542;13.232;2022-08-11T09:10:13;21.80;1.00
62072;DHT22;48031;48.542;13.232;2022-08-11T09:12:43;23.50;1.00
62072;DHT22;48031;48.542;13.232;2022-08-11T09:15:10;24.80;1.00
62072;DHT22;48031;48.542;13.232;2022-08-11T09:17:39;22.60;1.00
62072;DHT22;48031;48.542;13.232;2022-08-11T09:20:08;22.70;1.00
62072;DHT22;48031;48.542;13.232;2022-08-11T09:22:36;23.60;1.00
62072;DHT22;48031;48.542;13.232;2022-08-11T09:28:28;22.00;1.00
62072;DHT22;48031;48.542;13.232;2022-08-11T09:30:57;24.10;1.00
62072;DHT22;48031;48.542;13.232;2022-08-11T09:33:27;24.50;1.00
62072;DHT22;48031;48.542;13.232;2022-08-11T09:35:54;24.30;1.00
62072;DHT22;48031;48.542;13.232;2022-08-11T09:38:22;24.10;1.00
62072;DHT22;48031;48.542;13.232;2022-08-11T09:41:15;24.60;1.00
62072;DHT22;48031;48.542;13.232;2022-08-11T09:43:43;25.10;1.00
62072;DHT22;48031;48.542;13.232;2022-08-11T09:46:30;24.30;1.00
62072;DHT22;48031;48.542;13.232;2022-08-11T09:48:59;23.20;1.00
62072;DHT22;48031;48.542;13.232;2022-08-11T09:51:29;25.00;1.00
62072;DHT22;48031;48.542;13.232;2022-08-11T09:53:56;24.30;1.00
62072;DHT22;48031;48.542;13.232;2022-08-11T09:56:29;24.90;1.00
62072;DHT22;48031;48.542;13.232;2022-08-11T09:59:16;24.50;1.00
62072;DHT22;48031;48.542;13.232;2022-08-11T10:01:47;27.50;1.00
62072;DHT22;48031;48.542;13.232;2022-08-11T10:04:15;29.10;1.00
62072;DHT22;48031;48.542;13.232;2022-08-11T10:06:44;30.10;1.00
62072;DHT22;48031;48.542;13.232;2022-08-11T10:09:41;30.30;1.00
62072;DHT22;48031;48.542;13.232;2022-08-11T10:12:10;31.20;1.00
62072;DHT22;48031;48.542;13.232;2022-08-11T10:14:41;33.30;1.00
62072;DHT22;48031;48.542;13.232;2022-08-11T10:17:29;33.20;1.00
62072;DHT22;48031;48.542;13.232;2022-08-11T10:19:57;32.50;1.00
62072;DHT22;48031;48.542;13.232;2022-08-11T10:25:17;32.00;1.00
62072;DHT22;48031;48.542;13.232;2022-08-11T10:28:03;32.20;1.00
62072;DHT22;48031;48.542;13.232;2022-08-11T10:30:52;33.20;1.00
62072;DHT22;48031;48.542;13.232;2022-08-11T10:33:40;32.30;1.00
62072;DHT22;48031;48.542;13.232;2022-08-11T10:36:26;34.50;1.00
62072;DHT22;48031;48.542;13.232;2022-08-11T10:38:54;34.80;1.00
62072;DHT22;48031;48.542;13.232;2022-08-11T10:41:22;35.70;1.00
62072;DHT22;48031;48.542;13.232;2022-08-11T10:44:28;34.30;1.00
62072;DHT22;48031;48.542;13.232;2022-08-11T10:49:42;35.60;1.00
62072;DHT22;48031;48.542;13.232;2022-08-11T10:52:09;36.40;1.00
62072;DHT22;48031;48.542;13.232;2022-08-11T10:54:55;34.70;1.00
62072;DHT22;48031;48.542;13.232;2022-08-11T10:57:40;35.20;1.00
62072;DHT22;48031;48.542;13.232;2022-08-11T11:00:31;36.20;1.00
62072;DHT22;48031;48.542;13.232;2022-08-11T11:02:58;35.60;1.00
62072;DHT22;48031;48.542;13.232;2022-08-11T11:05:46;36.50;1.00
62072;DHT22;48031;48.542;13.232;2022-08-11T11:08:35;36.70;1.00
62072;DHT22;48031;48.542;13.232;2022-08-11T11:11:23;34.70;1.00
62072;DHT22;48031;48.542;13.232;2022-08-11T11:14:11;34.80;1.00
62072;DHT22;48031;48.542;13.232;2022-08-11T11:17:01;37.10;1.00
62072;DHT22;48031;48.542;13.232;2022-08-11T11:19:48;36.20;1.00
62072;DHT22;48031;48.542;13.232;2022-08-11T11:22:17;36.80;1.00
62072;DHT22;48031;48.542;13.232;2022-08-11T11:25:14;35.60;1.00
62072;DHT22;48031;48.542;13.232;2022-08-11T11:27:54;31.70;1.00
62072;DHT22;48031;48.542;13.232;2022-08-11T11:30:23;34.90;1.00
62072;DHT22;48031;48.542;13.232;2022-08-11T11:33:01;35.90;1.00
62072;DHT22;48031;48.542;13.232;2022-08-11T11:38:15;34.80;1.00
62072;DHT22;48031;48.542;13.232;2022-08-11T11:40:43;36.90;1.00
62072;DHT22;48031;48.542;13.232;2022-08-11T11:43:30;37.40;1.00
62072;DHT22;48031;48.542;13.232;2022-08-11T11:45:59;38.40;1.00
62072;DHT22;48031;48.542;13.232;2022-08-11T11:48:26;39.30;1.00
62072;DHT22;48031;48.542;13.232;2022-08-11T11:53:24;38.10;1.00
62072;DHT22;48031;48.542;13.232;2022-08-11T11:55:51;38.50;1.00
62072;DHT22;48031;48.542;13.232;2022-08-11T11:58:18;38.00;1.00
62072;DHT22;48031;48.542;13.232;2022-08-11T12:01:05;37.40;1.00
62072;DHT22;48031;48.542;13.232;2022-08-11T12:03:47;36.40;1.00
62072;DHT22;48031;48.542;13.232;2022-08-11T12:06:16;36.60;1.00
62072;DHT22;48031;48.542;13.232;2022-08-11T12:08:43;35.40;1.00
62072;DHT22;48031;48.542;13.232;2022-08-11T12:11:11;37.10;1.00
62072;DHT22;48031;48.542;13.232;2022-08-11T12:13:57;37.30;1.00
62072;DHT22;48031;48.542;13.232;2022-08-11T12:16:25;38.10;1.00
62072;DHT22;48031;48.542;13.232;2022-08-11T12:19:03;37.60;1.00
62072;DHT22;48031;48.542;13.232;2022-08-11T12:21:31;38.40;1.00
62072;DHT22;48031;48.542;13.232;2022-08-11T12:24:00;39.30;1.00
62072;DHT22;48031;48.542;13.232;2022-08-11T12:26:46;39.00;1.00
62072;DHT22;48031;48.542;13.232;2022-08-11T12:32:01;41.70;1.00
62072;DHT22;48031;48.542;13.232;2022-08-11T12:34:33;42.10;1.00
62072;DHT22;48031;48.542;13.232;2022-08-11T12:59:00;40.30;1.00
62072;DHT22;48031;48.542;13.232;2022-08-11T13:25:05;39.10;1.00
62072;DHT22;48031;48.542;13.232;2022-08-11T13:27:33;39.40;1.00
62072;DHT22;48031;48.542;13.232;2022-08-11T13:30:00;39.70;1.00
62072;DHT22;48031;48.542;13.232;2022-08-11T13:35:15;40.20;1.00
62072;DHT22;48031;48.542;13.232;2022-08-11T13:40:31;39.70;1.00
62072;DHT22;48031;48.542;13.232;2022-08-11T13:43:19;41.50;1.00
62072;DHT22;48031;48.542;13.232;2022-08-11T13:45:47;41.60;1.00
62072;DHT22;48031;48.542;13.232;2022-08-11T13:53:29;37.40;1.00
62072;DHT22;48031;48.542;13.232;2022-08-11T13:55:57;36.60;1.00
62072;DHT22;48031;48.542;13.232;2022-08-11T13:58:26;36.90;1.00
62072;DHT22;48031;48.542;13.232;2022-08-11T14:01:06;36.20;1.00
62072;DHT22;48031;48.542;13.232;2022-08-11T14:03:53;36.10;1.00
62072;DHT22;48031;48.542;13.232;2022-08-11T14:06:44;35.40;1.00
62072;DHT22;48031;48.542;13.232;2022-08-11T14:09:12;35.20;1.00
62072;DHT22;48031;48.542;13.232;2022-08-11T14:11:39;35.30;1.00
62072;DHT22;48031;48.542;13.232;2022-08-11T14:14:48;35.30;1.00
62072;DHT22;48031;48.542;13.232;2022-08-11T14:17:17;34.10;1.00
62072;DHT22;48031;48.542;13.232;2022-08-11T14:20:06;35.10;1.00
62072;DHT22;48031;48.542;13.232;2022-08-11T14:22:53;35.30;1.00
62072;DHT22;48031;48.542;13.232;2022-08-11T14:25:22;34.80;1.00
62072;DHT22;48031;48.542;13.232;2022-08-11T14:28:09;33.90;1.00
62072;DHT22;48031;48.542;13.232;2022-08-11T14:30:56;34.00;1.00
62072;DHT22;48031;48.542;13.232;2022-08-11T14:33:27;33.80;1.00
62072;DHT22;48031;48.542;13.232;2022-08-11T14:36:16;35.10;1.00
62072;DHT22;48031;48.542;13.232;2022-08-11T14:38:44;35.30;1.00
62072;DHT22;48031;48.542;13.232;2022-08-11T14:41:11;38.10;1.00
62072;DHT22;48031;48.542;13.232;2022-08-11T14:43:56;37.30;1.00
62072;DHT22;48031;48.542;13.232;2022-08-11T14:46:42;38.80;1.00
62072;DHT22;48031;48.542;13.232;2022-08-11T14:49:28;37.80;1.00
62072;DHT22;48031;48.542;13.232;2022-08-11T14:51:56;37.30;1.00
62072;DHT22;48031;48.542;13.232;2022-08-11T14:54:24;35.90;1.00
62072;DHT22;48031;48.542;13.232;2022-08-11T14:57:10;34.70;1.00
62072;DHT22;48031;48.542;13.232;2022-08-11T14:59:38;34.70;1.00
62072;DHT22;48031;48.542;13.232;2022-08-11T15:02:05;34.90;1.00
62072;DHT22;48031;48.542;13.232;2022-08-11T15:04:51;35.80;1.00
62072;DHT22;48031;48.542;13.232;2022-08-11T15:07:18;35.00;1.00
62072;DHT22;48031;48.542;13.232;2022-08-11T15:09:56;33.90;1.00
62072;DHT22;48031;48.542;13.232;2022-08-11T15:12:39;33.90;1.00
62072;DHT22;48031;48.542;13.232;2022-08-11T15:15:07;33.20;1.00
62072;DHT22;48031;48.542;13.232;2022-08-11T15:17:54;32.20;1.00
62072;DHT22;48031;48.542;13.232;2022-08-11T15:20:22;33.10;1.00
62072;DHT22;48031;48.542;13.232;2022-08-11T15:23:09;32.60;1.00
62072;DHT22;48031;48.542;13.232;2022-08-11T15:25:56;31.60;1.00
62072;DHT22;48031;48.542;13.232;2022-08-11T15:28:23;30.80;1.00
62072;DHT22;48031;48.542;13.232;2022-08-11T15:31:11;30.70;1.00
62072;DHT22;48031;48.542;13.232;2022-08-11T15:34:16;30.00;1.00
62072;DHT22;48031;48.542;13.232;2022-08-11T15:37:27;31.30;1.00
62072;DHT22;48031;48.542;13.232;2022-08-11T15:45:44;29.50;1.00
62072;DHT22;48031;48.542;13.232;2022-08-11T15:48:19;29.40;1.00
62072;DHT22;48031;48.542;13.232;2022-08-11T15:50:51;29.80;1.00
62072;DHT22;48031;48.542;13.232;2022-08-11T15:56:25;31.30;1.00
62072;DHT22;48031;48.542;13.232;2022-08-11T15:58:52;32.70;1.00
62072;DHT22;48031;48.542;13.232;2022-08-11T16:01:59;32.60;1.00
62072;DHT22;48031;48.542;13.232;2022-08-11T16:04:46;33.60;1.00
62072;DHT22;48031;48.542;13.232;2022-08-11T16:07:14;32.60;1.00
62072;DHT22;48031;48.542;13.232;2022-08-11T16:09:43;31.80;1.00
62072;DHT22;48031;48.542;13.232;2022-08-11T16:12:28;31.30;1.00
62072;DHT22;48031;48.542;13.232;2022-08-11T16:15:00;31.20;1.00
62072;DHT22;48031;48.542;13.232;2022-08-11T16:17:58;30.30;1.00
62072;DHT22;48031;48.542;13.232;2022-08-11T16:20:26;29.50;1.00
62072;DHT22;48031;48.542;13.232;2022-08-11T16:22:56;29.80;1.00
62072;DHT22;48031;48.542;13.232;2022-08-11T16:25:28;29.60;1.00
62072;DHT22;48031;48.542;13.232;2022-08-11T16:28:16;29.10;1.00
62072;DHT22;48031;48.542;13.232;2022-08-11T16:30:46;28.60;1.00
62072;DHT22;48031;48.542;13.232;2022-08-11T16:33:14;27.30;1.00
62072;DHT22;48031;48.542;13.232;2022-08-11T16:36:02;28.50;1.00
62072;DHT22;48031;48.542;13.232;2022-08-11T16:38:49;27.80;1.00
62072;DHT22;48031;48.542;13.232;2022-08-11T16:41:17;28.30;1.00
62072;DHT22;48031;48.542;13.232;2022-08-11T16:44:11;28.00;1.00
62072;DHT22;48031;48.542;13.232;2022-08-11T16:47:04;28.30;1.00
62072;DHT22;48031;48.542;13.232;2022-08-11T16:49:34;27.80;1.00
62072;DHT22;48031;48.542;13.232;2022-08-11T16:52:02;27.80;1.00
62072;DHT22;48031;48.542;13.232;2022-08-11T16:54:33;27.00;1.00
62072;DHT22;48031;48.542;13.232;2022-08-11T16:57:34;28.30;1.00
62072;DHT22;48031;48.542;13.232;2022-08-11T17:00:14;27.40;1.00
62072;DHT22;48031;48.542;13.232;2022-08-11T17:02:45;27.40;1.00
62072;DHT22;48031;48.542;13.232;2022-08-11T17:05:32;27.50;1.00
62072;DHT22;48031;48.542;13.232;2022-08-11T17:08:33;27.40;1.00
62072;DHT22;48031;48.542;13.232;2022-08-11T17:11:27;26.80;1.00
62072;DHT22;48031;48.542;13.232;2022-08-11T17:14:20;27.50;1.00
62072;DHT22;48031;48.542;13.232;2022-08-11T17:17:03;27.20;1.00
62072;DHT22;48031;48.542;13.232;2022-08-11T17:19:31;27.40;1.00
62072;DHT22;48031;48.542;13.232;2022-08-11T17:22:19;27.50;1.00
62072;DHT22;48031;48.542;13.232;2022-08-11T17:25:04;26.90;1.00
62072;DHT22;48031;48.542;13.232;2022-08-11T17:27:32;26.60;1.00
62072;DHT22;48031;48.542;13.232;2022-08-11T17:30:02;26.10;1.00
62072;DHT22;48031;48.542;13.232;2022-08-11T17:32:39;24.70;1.00
62072;DHT22;48031;48.542;13.232;2022-08-11T17:35:28;26.30;1.00
62072;DHT22;48031;48.542;13.232;2022-08-11T17:38:14;26.30;1.00
62072;DHT22;48031;48.542;13.232;2022-08-11T17:41:01;25.60;1.00
62072;DHT22;48031;48.542;13.232;2022-08-11T17:43:50;25.90;1.00
62072;DHT22;48031;48.542;13.232;2022-08-11T17:46:37;25.10;1.00
62072;DHT22;48031;48.542;13.232;2022-08-11T17:49:28;25.60;1.00
62072;DHT22;48031;48.542;13.232;2022-08-11T17:52:04;24.70;1.00
62072;DHT22;48031;48.542;13.232;2022-08-11T17:54:50;26.00;1.00
62072;DHT22;48031;48.542;13.232;2022-08-11T17:57:39;25.80;1.00
62072;DHT22;48031;48.542;13.232;2022-08-11T18:00:25;25.20;1.00
62072;DHT22;48031;48.542;13.232;2022-08-11T18:02:52;24.60;1.00
62072;DHT22;48031;48.542;13.232;2022-08-11T18:05:40;24.00;1.00
62072;DHT22;48031;48.542;13.232;2022-08-11T18:08:09;25.00;1.00
62072;DHT22;48031;48.542;13.232;2022-08-11T18:10:56;25.70;1.00
62072;DHT22;48031;48.542;13.232;2022-08-11T18:14:04;25.20;1.00
62072;DHT22;48031;48.542;13.232;2022-08-11T18:16:50;24.80;1.00
62072;DHT22;48031;48.542;13.232;2022-08-11T18:19:35;25.50;1.00
62072;DHT22;48031;48.542;13.232;2022-08-11T18:22:22;24.80;1.00
62072;DHT22;48031;48.542;13.232;2022-08-11T18:25:09;25.20;1.00
62072;DHT22;48031;48.542;13.232;2022-08-11T18:27:57;25.10;1.00
62072;DHT22;48031;48.542;13.232;2022-08-11T18:30:44;22.50;1.00
62072;DHT22;48031;48.542;13.232;2022-08-11T18:33:39;24.20;1.00
62072;DHT22;48031;48.542;13.232;2022-08-11T18:36:40;24.30;1.00
62072;DHT22;48031;48.542;13.232;2022-08-11T18:39:26;24.60;1.00
62072;DHT22;48031;48.542;13.232;2022-08-11T18:42:22;24.40;1.00
62072;DHT22;48031;48.542;13.232;2022-08-11T18:45:09;23.20;1.00
62072;DHT22;48031;48.542;13.232;2022-08-11T18:47:59;23.60;1.00
62072;DHT22;48031;48.542;13.232;2022-08-11T18:50:46;23.80;1.00
62072;DHT22;48031;48.542;13.232;2022-08-11T18:53:52;24.00;1.00
62072;DHT22;48031;48.542;13.232;2022-08-11T18:56:39;23.90;1.00
62072;DHT22;48031;48.542;13.232;2022-08-11T18:59:26;24.00;1.00
62072;DHT22;48031;48.542;13.232;2022-08-11T19:02:13;23.80;1.00
62072;DHT22;48031;48.542;13.232;2022-08-11T19:05:16;21.60;1.00
62072;DHT22;48031;48.542;13.232;2022-08-11T19:08:22;22.10;1.00
62072;DHT22;48031;48.542;13.232;2022-08-11T19:11:10;22.60;1.00
62072;DHT22;48031;48.542;13.232;2022-08-11T19:13:57;24.20;1.00
62072;DHT22;48031;48.542;13.232;2022-08-11T19:16:43;21.80;1.00
62072;DHT22;48031;48.542;13.232;2022-08-11T19:19:28;22.80;1.00
62072;DHT22;48031;48.542;13.232;2022-08-11T19:22:15;23.60;1.00
62072;DHT22;48031;48.542;13.232;2022-08-11T19:25:02;23.10;1.00
62072;DHT22;48031;48.542;13.232;2022-08-11T19:27:51;22.80;1.00
62072;DHT22;48031;48.542;13.232;2022-08-11T19:30:38;23.60;1.00
62072;DHT22;48031;48.542;13.232;2022-08-11T19:33:24;23.30;1.00
62072;DHT22;48031;48.542;13.232;2022-08-11T19:36:28;22.20;1.00
62072;DHT22;48031;48.542;13.232;2022-08-11T19:39:14;23.20;1.00
62072;DHT22;48031;48.542;13.232;2022-08-11T19:42:00;23.20;1.00
62072;DHT22;48031;48.542;13.232;2022-08-11T19:44:46;23.60;1.00
62072;DHT22;48031;48.542;13.232;2022-08-11T19:47:33;22.20;1.00
62072;DHT22;48031;48.542;13.232;2022-08-11T19:50:39;22.70;1.00
62072;DHT22;48031;48.542;13.232;2022-08-11T19:53:25;21.60;1.00
62072;DHT22;48031;48.542;13.232;2022-08-11T19:56:12;22.10;1.00
62072;DHT22;48031;48.542;13.232;2022-08-11T19:58:58;21.80;1.00
62072;DHT22;48031;48.542;13.232;2022-08-11T20:01:44;22.60;1.00
62072;DHT22;48031;48.542;13.232;2022-08-11T20:04:40;22.30;1.00
62072;DHT22;48031;48.542;13.232;2022-08-11T20:07:27;22.40;1.00
62072;DHT22;48031;48.542;13.232;2022-08-11T20:12:59;22.10;1.00
62072;DHT22;48031;48.542;13.232;2022-08-11T20:15:47;21.60;1.00
62072;DHT22;48031;48.542;13.232;2022-08-11T20:18:33;22.50;1.00
62072;DHT22;48031;48.542;13.232;2022-08-11T20:21:20;22.90;1.00
62072;DHT22;48031;48.542;13.232;2022-08-11T20:24:07;22.60;1.00
62072;DHT22;48031;48.542;13.232;2022-08-11T20:26:53;20.80;1.00
62072;DHT22;48031;48.542;13.232;2022-08-11T20:29:50;21.30;1.00
62072;DHT22;48031;48.542;13.232;2022-08-11T20:32:35;22.10;1.00
62072;DHT22;48031;48.542;13.232;2022-08-11T20:35:21;21.10;1.00
62072;DHT22;48031;48.542;13.232;2022-08-11T20:38:07;21.30;1.00
62072;DHT22;48031;48.542;13.232;2022-08-11T20:43:42;21.90;1.00
62072;DHT22;48031;48.542;13.232;2022-08-11T20:46:33;22.30;1.00
62072;DHT22;48031;48.542;13.232;2022-08-11T20:49:18;19.90;1.00
62072;DHT22;48031;48.542;13.232;2022-08-11T20:52:20;22.10;1.00
62072;DHT22;48031;48.542;13.232;2022-08-11T20:55:07;21.80;1.00
62072;DHT22;48031;48.542;13.232;2022-08-11T20:58:14;19.60;1.00
62072;DHT22;48031;48.542;13.232;2022-08-11T21:01:20;21.20;1.00
62072;DHT22;48031;48.542;13.232;2022-08-11T21:04:07;20.40;1.00
62072;DHT22;48031;48.542;13.232;2022-08-11T21:06:52;21.80;1.00
62072;DHT22;48031;48.542;13.232;2022-08-11T21:09:50;21.30;1.00
62072;DHT22;48031;48.542;13.232;2022-08-11T21:12:48;21.40;1.00
62072;DHT22;48031;48.542;13.232;2022-08-11T21:15:58;21.00;1.00
62072;DHT22;48031;48.542;13.232;2022-08-11T21:18:53;21.90;1.00
62072;DHT22;48031;48.542;13.232;2022-08-11T21:21:39;22.40;1.00
62072;DHT22;48031;48.542;13.232;2022-08-11T21:24:25;20.40;1.00
62072;DHT22;48031;48.542;13.232;2022-08-11T21:27:14;20.90;1.00
62072;DHT22;48031;48.542;13.232;2022-08-11T21:30:01;21.40;1.00
62072;DHT22;48031;48.542;13.232;2022-08-11T21:35:33;21.10;1.00
62072;DHT22;48031;48.542;13.232;2022-08-11T21:38:20;21.40;1.00
62072;DHT22;48031;48.542;13.232;2022-08-11T21:41:05;21.90;1.00
62072;DHT22;48031;48.542;13.232;2022-08-11T21:43:51;21.50;1.00
62072;DHT22;48031;48.542;13.232;2022-08-11T21:46:38;21.70;1.00
62072;DHT22;48031;48.542;13.232;2022-08-11T21:49:24;21.50;1.00
62072;DHT22;48031;48.542;13.232;2022-08-11T21:52:10;21.60;1.00
62072;DHT22;48031;48.542;13.232;2022-08-11T21:54:56;21.90;1.00
62072;DHT22;48031;48.542;13.232;2022-08-11T21:57:42;21.00;1.00
62072;DHT22;48031;48.542;13.232;2022-08-11T22:03:15;20.80;1.00
62072;DHT22;48031;48.542;13.232;2022-08-11T22:06:16;21.50;1.00
62072;DHT22;48031;48.542;13.232;2022-08-11T22:09:02;19.90;1.00
62072;DHT22;48031;48.542;13.232;2022-08-11T22:11:48;20.20;1.00
62072;DHT22;48031;48.542;13.232;2022-08-11T22:14:54;21.80;1.00
62072;DHT22;48031;48.542;13.232;2022-08-11T22:17:39;22.10;1.00